createdAt,value
2022-11-17T00:00:28.287Z,3.18
2022-11-17T00:03:39.216Z,3.15
2022-11-17T00:06:42.009Z,3.10
2022-11-17T00:09:44.590Z,3.09
2022-11-17T00:13:06.111Z,3.18
2022-11-17T00:16:13.113Z,3.11
2022-11-17T00:19:34.610Z,3.15
2022-11-17T00:22:37.124Z,3.09
2022-11-17T00:25:39.847Z,3.16
2022-11-17T00:28:42.462Z,3.17
2022-11-17T00:32:04.024Z,3.21
2022-11-17T00:35:07.100Z,3.12
2022-11-17T00:38:15.736Z,3.16
2022-11-17T00:41:18.110Z,3.13
2022-11-17T00:44:21.221Z,3.09
2022-11-17T00:47:23.676Z,3.04
2022-11-17T00:50:26.623Z,3.07
2022-11-17T00:53:29.239Z,3.05
2022-11-17T00:56:32.189Z,3.03
2022-11-17T00:59:34.603Z,2.96
2022-11-17T01:02:37.672Z,2.95
2022-11-17T01:05:40.254Z,3.08
2022-11-17T01:08:43.576Z,2.91
2022-11-17T01:11:47.492Z,2.87
2022-11-17T01:14:50.499Z,2.87
2022-11-17T01:17:53.139Z,2.77
2022-11-17T01:20:55.902Z,2.70
2022-11-17T01:24:00.090Z,2.71
2022-11-17T01:27:02.976Z,2.67
2022-11-17T01:30:06.026Z,2.64
2022-11-17T01:33:09.080Z,2.58
2022-11-17T01:36:20.830Z,2.67
2022-11-17T01:39:24.821Z,2.76
2022-11-17T01:42:27.705Z,2.72
2022-11-17T01:45:30.553Z,2.76
2022-11-17T01:48:33.555Z,2.76
2022-11-17T01:51:39.372Z,2.84
2022-11-17T01:54:43.755Z,2.89
2022-11-17T01:57:57.933Z,2.93
2022-11-17T02:01:00.613Z,2.91
2022-11-17T02:04:04.110Z,3.00
2022-11-17T02:07:11.355Z,3.10
2022-11-17T02:10:14.371Z,2.85
2022-11-17T02:13:17.143Z,2.78
2022-11-17T02:16:20.166Z,2.78
2022-11-17T02:19:24.448Z,2.87
2022-11-17T02:22:33.744Z,2.84
2022-11-17T02:26:04.551Z,2.71
2022-11-17T02:29:17.242Z,2.73
2022-11-17T02:32:28.030Z,2.65
2022-11-17T02:35:48.866Z,2.76
2022-11-17T02:39:00.023Z,2.73
2022-11-17T02:42:11.713Z,2.60
2022-11-17T02:45:33.819Z,2.72
2022-11-17T02:48:39.594Z,2.53
2022-11-17T02:51:43.502Z,2.62
2022-11-17T02:54:46.430Z,2.56
2022-11-17T02:57:49.959Z,2.56
2022-11-17T03:01:22.485Z,2.46
2022-11-17T03:04:38.073Z,2.49
2022-11-17T03:07:52.399Z,2.41
2022-11-17T03:11:01.219Z,2.40
2022-11-17T03:14:10.068Z,2.33
2022-11-17T03:17:38.300Z,2.25
2022-11-17T03:20:44.508Z,2.31
2022-11-17T03:23:51.409Z,2.19
2022-11-17T03:27:01.263Z,2.15
2022-11-17T03:30:08.013Z,2.16
2022-11-17T03:33:15.569Z,2.10
2022-11-17T03:36:23.309Z,2.10
2022-11-17T03:39:37.264Z,2.03
2022-11-17T03:42:43.295Z,2.08
2022-11-17T03:45:49.967Z,2.09
2022-11-17T03:49:37.164Z,2.08
2022-11-17T03:52:41.168Z,2.00
2022-11-17T03:56:08.278Z,1.98
2022-11-17T03:59:17.437Z,1.98
2022-11-17T04:02:20.870Z,2.03
2022-11-17T04:05:23.833Z,1.93
2022-11-17T04:08:29.818Z,1.99
2022-11-17T04:11:51.297Z,1.93
2022-11-17T04:15:12.522Z,1.97
2022-11-17T04:18:16.312Z,2.03
2022-11-17T04:21:19.335Z,2.00
2022-11-17T04:24:22.095Z,1.81
2022-11-17T04:27:43.325Z,1.87
2022-11-17T04:30:46.075Z,1.82
2022-11-17T04:33:56.793Z,1.85
2022-11-17T04:37:03.882Z,1.73
2022-11-17T04:40:10.442Z,1.76
2022-11-17T04:43:13.181Z,1.73
2022-11-17T04:46:16.871Z,1.85
2022-11-17T04:49:21.457Z,1.76
2022-11-17T04:52:29.456Z,1.77
2022-11-17T04:55:32.973Z,1.71
2022-11-17T04:58:35.595Z,1.76
2022-11-17T05:01:38.853Z,1.78
2022-11-17T05:04:56.354Z,1.79
2022-11-17T05:07:59.205Z,1.83
2022-11-17T05:11:20.307Z,1.87
2022-11-17T05:14:25.026Z,1.84
2022-11-17T05:17:27.519Z,1.90
2022-11-17T05:20:32.943Z,1.87
2022-11-17T05:23:54.219Z,1.73
2022-11-17T05:26:57.055Z,1.77
2022-11-17T05:29:59.995Z,1.70
2022-11-17T05:33:03.001Z,1.64
2022-11-17T05:36:05.994Z,1.66
2022-11-17T05:39:09.874Z,1.66
2022-11-17T05:42:12.578Z,1.73
2022-11-17T05:45:15.531Z,1.63
2022-11-17T05:48:18.671Z,1.65
2022-11-17T05:51:24.047Z,1.62
2022-11-17T05:54:27.238Z,1.57
2022-11-17T05:57:31.904Z,1.59
2022-11-17T06:00:35.245Z,1.65
2022-11-17T06:03:41.820Z,1.70
2022-11-17T06:06:47.646Z,1.67
2022-11-17T06:09:50.658Z,1.67
2022-11-17T06:12:53.991Z,1.56
2022-11-17T06:15:58.940Z,1.61
2022-11-17T06:19:18.155Z,1.55
2022-11-17T06:22:20.985Z,1.59
2022-11-17T06:25:24.133Z,1.57
2022-11-17T06:28:27.840Z,1.48
2022-11-17T06:31:32.606Z,1.48
2022-11-17T06:34:35.405Z,1.49
2022-11-17T06:37:38.265Z,1.47
2022-11-17T06:40:41.020Z,1.45
2022-11-17T06:43:43.881Z,1.44
2022-11-17T06:46:49.168Z,1.55
2022-11-17T06:49:52.164Z,1.53
2022-11-17T06:53:05.741Z,1.63
2022-11-17T06:56:12.010Z,1.64
2022-11-17T06:59:16.272Z,1.60
2022-11-17T07:02:19.264Z,1.53
2022-11-17T07:05:21.827Z,1.42
2022-11-17T07:08:24.660Z,1.40
2022-11-17T07:11:27.091Z,1.45
2022-11-17T07:14:30.084Z,1.40
2022-11-17T07:17:32.704Z,1.40
2022-11-17T07:20:35.493Z,1.50
2022-11-17T07:23:38.849Z,1.44
2022-11-17T07:26:41.534Z,1.41
2022-11-17T07:29:44.133Z,1.43
2022-11-17T07:32:53.411Z,1.45
2022-11-17T07:36:01.907Z,1.36
2022-11-17T07:39:07.699Z,1.46
2022-11-17T07:42:10.408Z,1.42
2022-11-17T07:45:13.209Z,1.31
2022-11-17T07:48:15.633Z,1.29
2022-11-17T07:51:18.565Z,1.22
2022-11-17T07:54:21.247Z,1.12
2022-11-17T07:57:25.329Z,1.12
2022-11-17T08:00:29.691Z,1.16
2022-11-17T08:03:32.610Z,1.03
2022-11-17T08:06:37.456Z,1.10
2022-11-17T08:09:40.519Z,1.00
2022-11-17T08:12:43.239Z,0.98
2022-11-17T08:15:46.113Z,1.20
2022-11-17T08:18:52.516Z,1.23
2022-11-17T08:21:55.733Z,1.34
2022-11-17T08:24:58.320Z,1.38
2022-11-17T08:28:01.362Z,1.29
2022-11-17T08:31:04.996Z,1.22
2022-11-17T08:34:08.058Z,1.42
2022-11-17T08:37:10.727Z,1.54
2022-11-17T08:40:14.409Z,1.47
2022-11-17T08:43:16.998Z,1.48
2022-11-17T08:46:19.791Z,1.53
2022-11-17T08:49:22.282Z,1.58
2022-11-17T08:52:25.142Z,1.58
2022-11-17T08:55:27.786Z,1.61
2022-11-17T08:58:30.651Z,1.63
2022-11-17T09:01:33.345Z,1.47
2022-11-17T09:04:36.289Z,1.48
2022-11-17T09:07:38.770Z,1.33
2022-11-17T09:10:42.245Z,1.35
2022-11-17T09:13:47.259Z,1.46
2022-11-17T09:16:50.275Z,1.47
2022-11-17T09:19:53.030Z,1.35
2022-11-17T09:22:59.606Z,1.25
2022-11-17T09:26:13.875Z,1.30
2022-11-17T09:29:16.744Z,1.29
2022-11-17T09:32:20.918Z,1.27
2022-11-17T09:35:23.890Z,1.31
2022-11-17T09:38:26.367Z,1.39
2022-11-17T09:41:39.096Z,1.53
2022-11-17T09:44:56.692Z,1.61
2022-11-17T09:48:39.035Z,1.59
2022-11-17T09:51:32.265Z,1.54
2022-11-17T09:54:48.674Z,1.63
2022-11-17T09:58:17.048Z,1.69
2022-11-17T10:01:22.105Z,1.59
2022-11-17T10:04:27.141Z,1.39
2022-11-17T10:07:31.640Z,1.25
2022-11-17T10:10:39.378Z,1.18
2022-11-17T10:13:42.394Z,1.24
2022-11-17T10:16:54.828Z,1.27
2022-11-17T10:19:57.680Z,1.31
2022-11-17T10:23:03.343Z,1.28
2022-11-17T10:26:11.366Z,1.24
2022-11-17T10:29:15.663Z,1.47
2022-11-17T10:32:18.688Z,1.46
2022-11-17T10:35:24.838Z,1.58
2022-11-17T10:38:29.747Z,1.51
2022-11-17T10:41:41.783Z,1.54
2022-11-17T10:44:51.490Z,1.51
2022-11-17T10:48:17.372Z,1.58
2022-11-17T10:51:25.414Z,1.33
2022-11-17T10:54:27.967Z,1.40
2022-11-17T10:57:31.141Z,1.44
2022-11-17T11:00:35.900Z,1.62
2022-11-17T11:03:39.709Z,1.61
2022-11-17T11:07:13.142Z,1.63
2022-11-17T11:10:19.352Z,1.56
2022-11-17T11:13:50.350Z,1.56
2022-11-17T11:16:53.745Z,1.66
2022-11-17T11:19:56.948Z,1.79
2022-11-17T11:23:08.919Z,1.70
2022-11-17T11:26:11.668Z,1.80
2022-11-17T11:29:17.365Z,1.79
2022-11-17T11:32:38.104Z,1.96
2022-11-17T11:36:00.173Z,2.02
2022-11-17T11:39:33.862Z,2.21
2022-11-17T11:42:53.370Z,2.04
2022-11-17T11:46:02.658Z,2.21
2022-11-17T11:49:33.800Z,2.29
2022-11-17T11:52:39.380Z,2.11
2022-11-17T11:55:42.473Z,2.24
2022-11-17T11:59:07.673Z,2.38
2022-11-17T12:02:13.506Z,2.46
2022-11-17T12:05:32.425Z,2.65
2022-11-17T12:09:01.200Z,2.71
2022-11-17T12:12:09.018Z,2.56
2022-11-17T12:15:20.681Z,2.40
2022-11-17T12:18:23.427Z,2.50
2022-11-17T12:21:29.438Z,2.57
2022-11-17T12:24:41.163Z,2.60
2022-11-17T12:27:46.367Z,2.62
2022-11-17T12:30:51.998Z,2.54
2022-11-17T12:33:55.023Z,2.45
2022-11-17T12:37:18.314Z,2.30
2022-11-17T12:40:39.748Z,2.30
2022-11-17T12:43:42.184Z,2.20
2022-11-17T12:46:48.285Z,2.15
2022-11-17T12:50:19.369Z,2.14
2022-11-17T12:53:26.482Z,2.13
2022-11-17T12:56:53.613Z,1.99
2022-11-17T13:00:07.877Z,1.95
2022-11-17T13:03:22.727Z,1.87
2022-11-17T13:06:35.506Z,1.96
2022-11-17T13:09:39.558Z,1.90
2022-11-17T13:12:42.543Z,1.96
2022-11-17T13:15:49.535Z,2.01
2022-11-17T13:18:52.369Z,2.03
2022-11-17T13:22:01.812Z,2.00
2022-11-17T13:25:23.433Z,1.95
2022-11-17T13:28:31.610Z,1.96
2022-11-17T13:31:34.618Z,1.89
2022-11-17T13:34:45.899Z,1.86
2022-11-17T13:38:14.274Z,1.79
2022-11-17T13:41:22.322Z,1.84
2022-11-17T13:44:27.827Z,1.83
2022-11-17T13:47:36.478Z,1.87
2022-11-17T13:50:40.301Z,1.92
2022-11-17T13:53:44.540Z,1.95
2022-11-17T13:56:47.479Z,1.92
2022-11-17T13:59:50.443Z,1.93
2022-11-17T14:02:59.733Z,1.96
2022-11-17T14:06:05.311Z,2.02
2022-11-17T14:09:10.340Z,1.99
2022-11-17T14:12:17.180Z,1.90
2022-11-17T14:15:25.492Z,1.84
2022-11-17T14:18:29.949Z,1.72
2022-11-17T14:21:33.653Z,1.68
2022-11-17T14:24:36.969Z,1.54
2022-11-17T14:27:40.208Z,1.47
2022-11-17T14:30:43.007Z,1.47
2022-11-17T14:33:46.386Z,1.41
2022-11-17T14:36:54.351Z,1.39
2022-11-17T14:39:57.422Z,1.27
2022-11-17T14:43:00.089Z,1.24
2022-11-17T14:46:03.846Z,1.18
2022-11-17T14:49:07.707Z,1.14
2022-11-17T14:52:10.530Z,1.07
2022-11-17T14:55:14.422Z,0.97
2022-11-17T14:58:17.201Z,0.86
2022-11-17T15:01:25.491Z,0.75
2022-11-17T15:04:49.346Z,0.68
2022-11-17T15:07:51.030Z,0.62
2022-11-17T15:10:56.614Z,0.35
2022-11-17T15:14:05.897Z,0.36
2022-11-17T15:17:13.929Z,0.29
2022-11-17T15:20:17.331Z,0.19
2022-11-17T15:23:20.226Z,0.23
2022-11-17T15:26:24.096Z,0.13
2022-11-17T15:29:26.937Z,0.14
2022-11-17T15:32:30.044Z,0.08
2022-11-17T15:35:32.913Z,0.08
2022-11-17T15:38:36.312Z,0.09
2022-11-17T15:41:39.387Z,0.04
2022-11-17T15:44:42.102Z,0.04
2022-11-17T15:47:45.028Z,0.04
2022-11-17T15:50:47.593Z,-0.02
2022-11-17T15:53:52.337Z,0.02
2022-11-17T15:56:55.837Z,0.02
2022-11-17T16:00:00.913Z,0.01
2022-11-17T16:03:06.176Z,-0.02
2022-11-17T16:06:10.172Z,-0.05
2022-11-17T16:09:13.321Z,-0.10
2022-11-17T16:12:17.212Z,-0.12
2022-11-17T16:15:19.856Z,-0.18
2022-11-17T16:18:23.321Z,-0.27
2022-11-17T16:21:26.064Z,-0.26
2022-11-17T16:24:28.961Z,-0.32
2022-11-17T16:27:33.080Z,-0.33
2022-11-17T16:30:36.217Z,-0.37
2022-11-17T16:33:38.935Z,-0.47
2022-11-17T16:36:43.932Z,-0.53
2022-11-17T16:39:46.492Z,-0.62
2022-11-17T16:42:49.289Z,-0.62
2022-11-17T16:45:51.755Z,-0.65
2022-11-17T16:48:55.284Z,-0.68
2022-11-17T16:51:59.162Z,-0.60
2022-11-17T16:55:05.143Z,-0.56
2022-11-17T16:58:08.534Z,-0.51
2022-11-17T17:01:16.714Z,-0.46
2022-11-17T17:04:19.630Z,-0.51
2022-11-17T17:07:22.463Z,-0.49
2022-11-17T17:10:25.713Z,-0.46
2022-11-17T17:13:29.027Z,-0.44
2022-11-17T17:16:33.383Z,-0.49
2022-11-17T17:19:36.629Z,-0.51
2022-11-17T17:22:39.793Z,-0.46
2022-11-17T17:25:43.184Z,-0.47
2022-11-17T17:28:47.673Z,-0.50
2022-11-17T17:31:50.764Z,-0.50
2022-11-17T17:34:53.529Z,-0.52
2022-11-17T17:37:56.972Z,-0.49
2022-11-17T17:41:14.119Z,-0.51
2022-11-17T17:44:19.609Z,-0.47
2022-11-17T17:47:22.392Z,-0.37
2022-11-17T17:50:25.618Z,-0.27
2022-11-17T17:53:28.741Z,-0.37
2022-11-17T17:56:34.251Z,-0.36
2022-11-17T17:59:37.301Z,-0.31
2022-11-17T18:02:41.020Z,-0.38
2022-11-17T18:05:44.200Z,-0.36
2022-11-17T18:08:48.105Z,-0.45
2022-11-17T18:11:52.310Z,-0.32
2022-11-17T18:14:55.682Z,-0.33
2022-11-17T18:17:58.661Z,-0.34
2022-11-17T18:21:04.835Z,-0.30
2022-11-17T18:24:08.160Z,-0.31
2022-11-17T18:27:12.055Z,-0.33
2022-11-17T18:30:15.391Z,-0.33
2022-11-17T18:33:19.358Z,-0.34
2022-11-17T18:36:24.493Z,-0.32
2022-11-17T18:39:31.970Z,-0.38
2022-11-17T18:42:38.941Z,-0.40
2022-11-17T18:45:42.941Z,-0.40
2022-11-17T18:48:48.244Z,-0.43
2022-11-17T18:51:53.010Z,-0.43
2022-11-17T18:54:56.572Z,-0.45
2022-11-17T18:57:59.997Z,-0.49
2022-11-17T19:01:18.190Z,-0.46
2022-11-17T19:04:23.026Z,-0.51
2022-11-17T19:07:29.858Z,-0.49
2022-11-17T19:11:06.427Z,-0.52
2022-11-17T19:14:36.246Z,-0.52
2022-11-17T19:18:00.107Z,-0.48
2022-11-17T19:21:16.559Z,-0.43
2022-11-17T19:28:54.811Z,-0.48
2022-11-17T19:36:39.817Z,-0.46
2022-11-17T19:39:43.265Z,-0.51
2022-11-17T19:42:51.182Z,-0.56
2022-11-17T19:46:01.960Z,-0.59
2022-11-17T19:49:09.436Z,-0.49
2022-11-17T19:52:33.974Z,-0.44
2022-11-17T19:55:38.914Z,-0.48
2022-11-17T19:58:43.988Z,-0.46
2022-11-17T20:01:48.043Z,-0.43
2022-11-17T20:04:51.026Z,-0.39
2022-11-17T20:07:54.317Z,-0.43
2022-11-17T20:11:07.797Z,-0.37
2022-11-17T20:14:12.323Z,-0.46
2022-11-17T20:17:15.557Z,-0.38
2022-11-17T20:20:19.010Z,-0.36
2022-11-17T20:23:22.393Z,-0.39
2022-11-17T20:26:29.788Z,-0.43
2022-11-17T20:29:33.379Z,-0.41
2022-11-17T20:32:37.444Z,-0.43
2022-11-17T20:35:40.988Z,-0.50
2022-11-17T20:38:46.007Z,-0.48
2022-11-17T20:41:50.771Z,-0.36
2022-11-17T20:44:54.270Z,-0.38
2022-11-17T20:47:58.840Z,-0.38
2022-11-17T20:51:10.095Z,-0.42
2022-11-17T20:54:13.858Z,-0.36
2022-11-17T20:57:20.128Z,-0.36
2022-11-17T21:00:23.971Z,-0.37
2022-11-17T21:03:28.283Z,-0.38
2022-11-17T21:06:31.566Z,-0.44
2022-11-17T21:09:35.749Z,-0.55
2022-11-17T21:12:41.708Z,-0.47
2022-11-17T21:15:46.878Z,-0.47
2022-11-17T21:18:49.768Z,-0.52
2022-11-17T21:21:53.706Z,-0.50
2022-11-17T21:24:56.868Z,-0.53
2022-11-17T21:27:59.741Z,-0.62
2022-11-17T21:31:07.069Z,-0.58
2022-11-17T21:34:17.305Z,-0.64
2022-11-17T21:37:20.998Z,-0.64
2022-11-17T21:40:24.759Z,-0.67
2022-11-17T21:43:27.440Z,-0.63
2022-11-17T21:46:33.190Z,-0.65
2022-11-17T21:49:35.744Z,-0.75
2022-11-17T21:52:38.730Z,-0.81
2022-11-17T21:55:41.340Z,-0.87
2022-11-17T21:58:44.376Z,-0.87
2022-11-17T22:01:46.827Z,-0.93
2022-11-17T22:04:49.633Z,-0.97
2022-11-17T22:07:52.084Z,-0.95
2022-11-17T22:10:55.055Z,-1.00
2022-11-17T22:13:58.008Z,-1.00
2022-11-17T22:17:01.913Z,-1.02
2022-11-17T22:20:05.742Z,-1.01
2022-11-17T22:23:08.531Z,-1.05
2022-11-17T22:26:13.194Z,-1.08
2022-11-17T22:29:19.971Z,-1.08
2022-11-17T22:32:23.852Z,-1.07
2022-11-17T22:35:26.952Z,-1.07
2022-11-17T22:38:31.209Z,-1.05
2022-11-17T22:41:34.131Z,-1.10
2022-11-17T22:44:36.850Z,-1.08
2022-11-17T22:47:42.496Z,-1.05
2022-11-17T22:50:44.987Z,-1.09
2022-11-17T22:53:48.003Z,-1.04
2022-11-17T22:56:50.672Z,-1.05
2022-11-17T22:59:53.821Z,-0.99
2022-11-17T23:02:56.465Z,-1.07
2022-11-17T23:06:05.540Z,-1.00
2022-11-17T23:09:07.974Z,-0.90
2022-11-17T23:12:10.832Z,-0.91
2022-11-17T23:15:13.375Z,-0.88
2022-11-17T23:18:16.191Z,-0.82
2022-11-17T23:21:19.097Z,-0.83
2022-11-17T23:24:22.131Z,-0.85
2022-11-17T23:27:24.953Z,-0.78
2022-11-17T23:30:27.811Z,-0.71
2022-11-17T23:33:38.599Z,-0.61
2022-11-17T23:36:41.285Z,-0.63
2022-11-17T23:39:44.620Z,-0.63
2022-11-17T23:42:47.754Z,-0.61
2022-11-17T23:45:50.389Z,-0.59
2022-11-17T23:48:54.587Z,-0.57
2022-11-17T23:51:56.978Z,-0.52
2022-11-17T23:54:59.789Z,-0.51
2022-11-17T23:58:02.357Z,-0.52
